sensor_id;sensor_type;location;lat;lon;timestamp;P1;durP1;ratioP1;P2;durP2;ratioP2
43337;SDS011;28933;52.492;13.434;2023-10-08T00:00:33;5.10;;;2.13;;
43337;SDS011;28933;52.492;13.434;2023-10-08T00:03:31;4.18;;;2.08;;
43337;SDS011;28933;52.492;13.434;2023-10-08T00:06:18;5.85;;;1.83;;
43337;SDS011;28933;52.492;13.434;2023-10-08T00:09:06;3.80;;;2.17;;
43337;SDS011;28933;52.492;13.434;2023-10-08T00:11:53;5.43;;;1.90;;
43337;SDS011;28933;52.492;13.434;2023-10-08T00:14:40;3.42;;;1.75;;
43337;SDS011;28933;52.492;13.434;2023-10-08T00:17:29;5.45;;;1.77;;
43337;SDS011;28933;52.492;13.434;2023-10-08T00:20:16;5.93;;;2.25;;
43337;SDS011;28933;52.492;13.434;2023-10-08T00:23:10;5.75;;;2.10;;
43337;SDS011;28933;52.492;13.434;2023-10-08T00:25:56;9.73;;;3.00;;
43337;SDS011;28933;52.492;13.434;2023-10-08T00:28:43;5.60;;;2.15;;
43337;SDS011;28933;52.492;13.434;2023-10-08T00:31:33;4.10;;;2.10;;
43337;SDS011;28933;52.492;13.434;2023-10-08T00:34:26;5.57;;;1.90;;
43337;SDS011;28933;52.492;13.434;2023-10-08T00:37:12;4.78;;;2.00;;
43337;SDS011;28933;52.492;13.434;2023-10-08T00:40:02;6.63;;;2.10;;
43337;SDS011;28933;52.492;13.434;2023-10-08T00:42:57;7.53;;;3.30;;
43337;SDS011;28933;52.492;13.434;2023-10-08T00:45:43;4.70;;;2.30;;
43337;SDS011;28933;52.492;13.434;2023-10-08T00:48:29;5.15;;;2.53;;
43337;SDS011;28933;52.492;13.434;2023-10-08T00:51:21;5.78;;;2.17;;
43337;SDS011;28933;52.492;13.434;2023-10-08T00:54:07;6.18;;;2.35;;
43337;SDS011;28933;52.492;13.434;2023-10-08T00:56:55;5.80;;;2.50;;
43337;SDS011;28933;52.492;13.434;2023-10-08T00:59:43;4.07;;;2.13;;
43337;SDS011;28933;52.492;13.434;2023-10-08T01:02:35;5.90;;;2.15;;
43337;SDS011;28933;52.492;13.434;2023-10-08T01:05:31;3.30;;;1.73;;
43337;SDS011;28933;52.492;13.434;2023-10-08T01:08:32;5.93;;;2.38;;
43337;SDS011;28933;52.492;13.434;2023-10-08T01:11:22;6.30;;;3.20;;
43337;SDS011;28933;52.492;13.434;2023-10-08T01:14:31;5.90;;;2.15;;
43337;SDS011;28933;52.492;13.434;2023-10-08T01:17:18;5.28;;;2.13;;
43337;SDS011;28933;52.492;13.434;2023-10-08T01:20:09;7.45;;;2.45;;
43337;SDS011;28933;52.492;13.434;2023-10-08T01:23:07;8.50;;;2.42;;
43337;SDS011;28933;52.492;13.434;2023-10-08T01:25:58;12.60;;;2.65;;
43337;SDS011;28933;52.492;13.434;2023-10-08T01:28:56;4.15;;;2.42;;
43337;SDS011;28933;52.492;13.434;2023-10-08T01:35:24;6.60;;;2.38;;
43337;SDS011;28933;52.492;13.434;2023-10-08T01:38:11;8.55;;;2.78;;
43337;SDS011;28933;52.492;13.434;2023-10-08T01:41:01;6.32;;;2.67;;
43337;SDS011;28933;52.492;13.434;2023-10-08T01:44:03;6.40;;;2.22;;
43337;SDS011;28933;52.492;13.434;2023-10-08T01:46:53;5.28;;;2.42;;
43337;SDS011;28933;52.492;13.434;2023-10-08T01:49:42;2.97;;;1.80;;
43337;SDS011;28933;52.492;13.434;2023-10-08T01:52:30;8.32;;;2.78;;
43337;SDS011;28933;52.492;13.434;2023-10-08T01:55:17;6.30;;;2.58;;
43337;SDS011;28933;52.492;13.434;2023-10-08T01:58:03;5.68;;;2.60;;
43337;SDS011;28933;52.492;13.434;2023-10-08T02:00:49;7.88;;;2.05;;
43337;SDS011;28933;52.492;13.434;2023-10-08T02:03:37;4.05;;;1.90;;
43337;SDS011;28933;52.492;13.434;2023-10-08T02:06:23;6.55;;;2.15;;
43337;SDS011;28933;52.492;13.434;2023-10-08T02:09:09;5.25;;;1.80;;
43337;SDS011;28933;52.492;13.434;2023-10-08T02:11:55;5.75;;;2.05;;
43337;SDS011;28933;52.492;13.434;2023-10-08T02:14:42;5.05;;;2.15;;
43337;SDS011;28933;52.492;13.434;2023-10-08T02:17:28;6.85;;;2.13;;
43337;SDS011;28933;52.492;13.434;2023-10-08T02:20:14;6.55;;;2.60;;
43337;SDS011;28933;52.492;13.434;2023-10-08T02:23:01;7.13;;;2.35;;
43337;SDS011;28933;52.492;13.434;2023-10-08T02:25:50;8.27;;;3.05;;
43337;SDS011;28933;52.492;13.434;2023-10-08T02:28:36;5.47;;;2.47;;
43337;SDS011;28933;52.492;13.434;2023-10-08T02:31:23;7.50;;;2.35;;
43337;SDS011;28933;52.492;13.434;2023-10-08T02:34:10;5.10;;;2.85;;
43337;SDS011;28933;52.492;13.434;2023-10-08T02:36:57;9.52;;;2.92;;
43337;SDS011;28933;52.492;13.434;2023-10-08T02:39:44;6.95;;;2.67;;
43337;SDS011;28933;52.492;13.434;2023-10-08T02:42:30;8.43;;;2.65;;
43337;SDS011;28933;52.492;13.434;2023-10-08T02:45:17;7.72;;;3.05;;
43337;SDS011;28933;52.492;13.434;2023-10-08T02:48:03;12.90;;;2.90;;
43337;SDS011;28933;52.492;13.434;2023-10-08T02:50:57;7.72;;;2.67;;
43337;SDS011;28933;52.492;13.434;2023-10-08T02:53:52;5.15;;;2.75;;
43337;SDS011;28933;52.492;13.434;2023-10-08T02:56:38;6.88;;;3.22;;
43337;SDS011;28933;52.492;13.434;2023-10-08T02:59:28;5.40;;;2.83;;
43337;SDS011;28933;52.492;13.434;2023-10-08T03:02:24;8.13;;;3.15;;
43337;SDS011;28933;52.492;13.434;2023-10-08T03:05:10;6.57;;;3.22;;
43337;SDS011;28933;52.492;13.434;2023-10-08T03:07:58;7.82;;;2.90;;
43337;SDS011;28933;52.492;13.434;2023-10-08T03:10:44;8.52;;;3.50;;
43337;SDS011;28933;52.492;13.434;2023-10-08T03:13:30;8.10;;;3.05;;
43337;SDS011;28933;52.492;13.434;2023-10-08T03:16:16;9.55;;;3.40;;
43337;SDS011;28933;52.492;13.434;2023-10-08T03:19:07;6.90;;;3.10;;
43337;SDS011;28933;52.492;13.434;2023-10-08T03:21:54;4.70;;;2.53;;
43337;SDS011;28933;52.492;13.434;2023-10-08T03:24:42;7.13;;;3.72;;
43337;SDS011;28933;52.492;13.434;2023-10-08T03:27:29;6.38;;;3.20;;
43337;SDS011;28933;52.492;13.434;2023-10-08T03:30:15;11.35;;;3.63;;
43337;SDS011;28933;52.492;13.434;2023-10-08T03:33:01;8.50;;;3.65;;
43337;SDS011;28933;52.492;13.434;2023-10-08T03:35:50;9.02;;;3.38;;
43337;SDS011;28933;52.492;13.434;2023-10-08T03:38:40;7.13;;;3.25;;
43337;SDS011;28933;52.492;13.434;2023-10-08T03:41:38;7.63;;;2.95;;
43337;SDS011;28933;52.492;13.434;2023-10-08T03:44:25;6.30;;;3.05;;
43337;SDS011;28933;52.492;13.434;2023-10-08T03:47:14;7.15;;;3.25;;
43337;SDS011;28933;52.492;13.434;2023-10-08T03:50:05;6.82;;;2.97;;
43337;SDS011;28933;52.492;13.434;2023-10-08T03:52:55;6.60;;;2.75;;
43337;SDS011;28933;52.492;13.434;2023-10-08T03:55:41;5.78;;;2.78;;
43337;SDS011;28933;52.492;13.434;2023-10-08T03:58:27;10.82;;;3.10;;
43337;SDS011;28933;52.492;13.434;2023-10-08T04:01:14;8.55;;;3.10;;
43337;SDS011;28933;52.492;13.434;2023-10-08T04:04:04;6.10;;;2.60;;
43337;SDS011;28933;52.492;13.434;2023-10-08T04:06:51;9.25;;;2.95;;
43337;SDS011;28933;52.492;13.434;2023-10-08T04:09:40;5.53;;;2.65;;
43337;SDS011;28933;52.492;13.434;2023-10-08T04:12:27;7.60;;;2.65;;
43337;SDS011;28933;52.492;13.434;2023-10-08T04:15:13;7.53;;;3.30;;
43337;SDS011;28933;52.492;13.434;2023-10-08T04:18:01;8.75;;;3.97;;
43337;SDS011;28933;52.492;13.434;2023-10-08T04:20:48;9.35;;;2.75;;
43337;SDS011;28933;52.492;13.434;2023-10-08T04:23:49;7.65;;;3.13;;
43337;SDS011;28933;52.492;13.434;2023-10-08T04:26:36;8.50;;;2.90;;
43337;SDS011;28933;52.492;13.434;2023-10-08T04:29:26;7.53;;;2.85;;
43337;SDS011;28933;52.492;13.434;2023-10-08T04:32:16;7.63;;;2.72;;
43337;SDS011;28933;52.492;13.434;2023-10-08T04:35:10;7.68;;;3.20;;
43337;SDS011;28933;52.492;13.434;2023-10-08T04:38:00;6.32;;;2.80;;
43337;SDS011;28933;52.492;13.434;2023-10-08T04:40:46;5.93;;;2.67;;
43337;SDS011;28933;52.492;13.434;2023-10-08T04:43:38;4.82;;;2.70;;
43337;SDS011;28933;52.492;13.434;2023-10-08T04:46:24;6.88;;;2.58;;
43337;SDS011;28933;52.492;13.434;2023-10-08T04:49:25;9.02;;;3.10;;
43337;SDS011;28933;52.492;13.434;2023-10-08T04:52:14;6.72;;;3.00;;
43337;SDS011;28933;52.492;13.434;2023-10-08T04:55:00;7.57;;;3.28;;
43337;SDS011;28933;52.492;13.434;2023-10-08T04:57:57;10.20;;;3.10;;
43337;SDS011;28933;52.492;13.434;2023-10-08T05:00:45;9.32;;;3.60;;
43337;SDS011;28933;52.492;13.434;2023-10-08T05:03:39;15.52;;;4.53;;
43337;SDS011;28933;52.492;13.434;2023-10-08T05:06:39;7.18;;;3.30;;
43337;SDS011;28933;52.492;13.434;2023-10-08T05:09:35;5.40;;;2.53;;
43337;SDS011;28933;52.492;13.434;2023-10-08T05:12:32;5.72;;;2.85;;
43337;SDS011;28933;52.492;13.434;2023-10-08T05:15:36;8.82;;;3.20;;
43337;SDS011;28933;52.492;13.434;2023-10-08T05:18:26;10.82;;;2.85;;
43337;SDS011;28933;52.492;13.434;2023-10-08T05:21:33;8.90;;;3.50;;
43337;SDS011;28933;52.492;13.434;2023-10-08T05:24:36;7.05;;;3.50;;
43337;SDS011;28933;52.492;13.434;2023-10-08T05:27:26;5.97;;;3.42;;
43337;SDS011;28933;52.492;13.434;2023-10-08T05:30:24;6.50;;;3.00;;
43337;SDS011;28933;52.492;13.434;2023-10-08T05:33:23;7.63;;;2.95;;
43337;SDS011;28933;52.492;13.434;2023-10-08T05:36:23;6.88;;;2.53;;
43337;SDS011;28933;52.492;13.434;2023-10-08T05:39:29;7.05;;;3.08;;
43337;SDS011;28933;52.492;13.434;2023-10-08T05:42:25;8.00;;;3.17;;
43337;SDS011;28933;52.492;13.434;2023-10-08T05:45:14;5.90;;;2.50;;
43337;SDS011;28933;52.492;13.434;2023-10-08T05:48:14;5.97;;;2.63;;
43337;SDS011;28933;52.492;13.434;2023-10-08T05:51:07;6.07;;;3.22;;
43337;SDS011;28933;52.492;13.434;2023-10-08T05:54:09;8.23;;;2.85;;
43337;SDS011;28933;52.492;13.434;2023-10-08T05:57:10;12.93;;;3.72;;
43337;SDS011;28933;52.492;13.434;2023-10-08T05:59:56;9.95;;;3.45;;
43337;SDS011;28933;52.492;13.434;2023-10-08T06:02:42;7.53;;;3.20;;
43337;SDS011;28933;52.492;13.434;2023-10-08T06:05:31;5.32;;;2.63;;
43337;SDS011;28933;52.492;13.434;2023-10-08T06:08:29;11.45;;;3.65;;
43337;SDS011;28933;52.492;13.434;2023-10-08T06:14:29;6.68;;;3.13;;
43337;SDS011;28933;52.492;13.434;2023-10-08T06:17:34;7.32;;;3.33;;
43337;SDS011;28933;52.492;13.434;2023-10-08T06:20:40;8.88;;;3.30;;
43337;SDS011;28933;52.492;13.434;2023-10-08T06:23:30;7.22;;;2.80;;
43337;SDS011;28933;52.492;13.434;2023-10-08T06:26:20;7.88;;;3.55;;
43337;SDS011;28933;52.492;13.434;2023-10-08T06:29:09;6.60;;;2.75;;
43337;SDS011;28933;52.492;13.434;2023-10-08T06:32:12;6.75;;;2.15;;
43337;SDS011;28933;52.492;13.434;2023-10-08T06:34:58;6.70;;;2.10;;
43337;SDS011;28933;52.492;13.434;2023-10-08T06:37:44;4.95;;;2.08;;
43337;SDS011;28933;52.492;13.434;2023-10-08T06:40:31;7.43;;;2.00;;
43337;SDS011;28933;52.492;13.434;2023-10-08T06:43:26;8.05;;;2.97;;
43337;SDS011;28933;52.492;13.434;2023-10-08T06:46:13;6.38;;;2.83;;
43337;SDS011;28933;52.492;13.434;2023-10-08T06:48:59;7.30;;;2.13;;
43337;SDS011;28933;52.492;13.434;2023-10-08T06:51:48;4.32;;;2.15;;
43337;SDS011;28933;52.492;13.434;2023-10-08T06:54:35;5.50;;;2.05;;
43337;SDS011;28933;52.492;13.434;2023-10-08T06:57:21;6.30;;;2.20;;
43337;SDS011;28933;52.492;13.434;2023-10-08T07:00:12;5.35;;;2.25;;
43337;SDS011;28933;52.492;13.434;2023-10-08T07:03:18;5.55;;;2.45;;
43337;SDS011;28933;52.492;13.434;2023-10-08T07:06:05;3.45;;;1.90;;
43337;SDS011;28933;52.492;13.434;2023-10-08T07:09:10;4.45;;;2.38;;
43337;SDS011;28933;52.492;13.434;2023-10-08T07:12:12;3.90;;;1.75;;
43337;SDS011;28933;52.492;13.434;2023-10-08T07:14:59;4.07;;;1.50;;
43337;SDS011;28933;52.492;13.434;2023-10-08T07:17:46;4.82;;;1.67;;
43337;SDS011;28933;52.492;13.434;2023-10-08T07:20:37;4.38;;;1.45;;
43337;SDS011;28933;52.492;13.434;2023-10-08T07:23:25;2.60;;;1.60;;
43337;SDS011;28933;52.492;13.434;2023-10-08T07:26:12;2.85;;;1.60;;
43337;SDS011;28933;52.492;13.434;2023-10-08T07:28:59;2.88;;;1.70;;
43337;SDS011;28933;52.492;13.434;2023-10-08T07:31:45;6.50;;;2.20;;
43337;SDS011;28933;52.492;13.434;2023-10-08T07:34:34;5.53;;;2.03;;
43337;SDS011;28933;52.492;13.434;2023-10-08T07:37:20;4.40;;;1.67;;
43337;SDS011;28933;52.492;13.434;2023-10-08T07:40:06;4.93;;;1.60;;
43337;SDS011;28933;52.492;13.434;2023-10-08T07:42:54;3.15;;;1.70;;
43337;SDS011;28933;52.492;13.434;2023-10-08T07:45:41;5.18;;;2.25;;
43337;SDS011;28933;52.492;13.434;2023-10-08T07:48:31;3.13;;;1.52;;
43337;SDS011;28933;52.492;13.434;2023-10-08T07:51:17;3.72;;;2.22;;
43337;SDS011;28933;52.492;13.434;2023-10-08T07:54:07;4.65;;;1.73;;
43337;SDS011;28933;52.492;13.434;2023-10-08T07:57:02;3.40;;;1.67;;
43337;SDS011;28933;52.492;13.434;2023-10-08T07:59:54;2.17;;;1.38;;
43337;SDS011;28933;52.492;13.434;2023-10-08T08:02:40;2.92;;;1.45;;
43337;SDS011;28933;52.492;13.434;2023-10-08T08:05:27;5.38;;;1.77;;
43337;SDS011;28933;52.492;13.434;2023-10-08T08:08:13;3.55;;;1.50;;
43337;SDS011;28933;52.492;13.434;2023-10-08T08:11:03;2.15;;;1.42;;
43337;SDS011;28933;52.492;13.434;2023-10-08T08:13:52;4.32;;;1.38;;
43337;SDS011;28933;52.492;13.434;2023-10-08T08:16:38;4.25;;;1.85;;
43337;SDS011;28933;52.492;13.434;2023-10-08T08:19:24;3.42;;;1.20;;
43337;SDS011;28933;52.492;13.434;2023-10-08T08:22:10;4.57;;;2.00;;
43337;SDS011;28933;52.492;13.434;2023-10-08T08:25:00;3.03;;;1.50;;
43337;SDS011;28933;52.492;13.434;2023-10-08T08:28:06;3.75;;;1.42;;
43337;SDS011;28933;52.492;13.434;2023-10-08T08:33:49;2.45;;;1.30;;
43337;SDS011;28933;52.492;13.434;2023-10-08T08:36:38;3.42;;;1.67;;
43337;SDS011;28933;52.492;13.434;2023-10-08T08:39:25;2.50;;;1.30;;
43337;SDS011;28933;52.492;13.434;2023-10-08T08:42:18;1.95;;;1.05;;
43337;SDS011;28933;52.492;13.434;2023-10-08T08:45:09;2.53;;;1.40;;
43337;SDS011;28933;52.492;13.434;2023-10-08T08:47:58;3.53;;;1.52;;
43337;SDS011;28933;52.492;13.434;2023-10-08T08:50:45;3.20;;;1.15;;
43337;SDS011;28933;52.492;13.434;2023-10-08T08:53:33;3.50;;;1.20;;
43337;SDS011;28933;52.492;13.434;2023-10-08T08:56:20;2.45;;;1.17;;
43337;SDS011;28933;52.492;13.434;2023-10-08T08:59:07;3.42;;;1.73;;
43337;SDS011;28933;52.492;13.434;2023-10-08T09:01:59;2.33;;;1.17;;
43337;SDS011;28933;52.492;13.434;2023-10-08T09:04:47;3.78;;;1.35;;
43337;SDS011;28933;52.492;13.434;2023-10-08T09:07:34;3.25;;;1.40;;
43337;SDS011;28933;52.492;13.434;2023-10-08T09:10:21;3.03;;;1.00;;
43337;SDS011;28933;52.492;13.434;2023-10-08T09:13:13;1.67;;;1.13;;
43337;SDS011;28933;52.492;13.434;2023-10-08T09:16:15;3.47;;;1.20;;
43337;SDS011;28933;52.492;13.434;2023-10-08T09:19:02;3.35;;;1.10;;
43337;SDS011;28933;52.492;13.434;2023-10-08T09:21:59;3.35;;;1.70;;
43337;SDS011;28933;52.492;13.434;2023-10-08T09:24:47;1.60;;;0.95;;
43337;SDS011;28933;52.492;13.434;2023-10-08T09:27:33;1.98;;;1.30;;
43337;SDS011;28933;52.492;13.434;2023-10-08T09:30:19;3.70;;;1.58;;
43337;SDS011;28933;52.492;13.434;2023-10-08T09:33:06;2.20;;;1.20;;
43337;SDS011;28933;52.492;13.434;2023-10-08T09:35:56;2.00;;;1.00;;
43337;SDS011;28933;52.492;13.434;2023-10-08T09:38:48;1.70;;;1.10;;
43337;SDS011;28933;52.492;13.434;2023-10-08T09:41:35;1.05;;;0.73;;
43337;SDS011;28933;52.492;13.434;2023-10-08T09:44:24;2.70;;;1.27;;
43337;SDS011;28933;52.492;13.434;2023-10-08T09:47:10;2.85;;;1.23;;
43337;SDS011;28933;52.492;13.434;2023-10-08T09:50:03;4.28;;;1.38;;
43337;SDS011;28933;52.492;13.434;2023-10-08T09:53:00;2.20;;;1.30;;
43337;SDS011;28933;52.492;13.434;2023-10-08T09:55:54;2.10;;;1.10;;
43337;SDS011;28933;52.492;13.434;2023-10-08T09:58:41;1.30;;;1.00;;
43337;SDS011;28933;52.492;13.434;2023-10-08T10:01:28;2.00;;;1.20;;
43337;SDS011;28933;52.492;13.434;2023-10-08T10:04:23;2.47;;;1.13;;
43337;SDS011;28933;52.492;13.434;2023-10-08T10:07:10;3.20;;;1.35;;
43337;SDS011;28933;52.492;13.434;2023-10-08T10:10:01;1.23;;;0.70;;
43337;SDS011;28933;52.492;13.434;2023-10-08T10:13:11;9.90;;;5.20;;
43337;SDS011;28933;52.492;13.434;2023-10-08T10:15:57;7.35;;;3.53;;
43337;SDS011;28933;52.492;13.434;2023-10-08T10:18:44;16.63;;;9.05;;
43337;SDS011;28933;52.492;13.434;2023-10-08T10:21:32;5.45;;;3.00;;
43337;SDS011;28933;52.492;13.434;2023-10-08T10:24:36;8.73;;;5.30;;
43337;SDS011;28933;52.492;13.434;2023-10-08T10:27:26;3.53;;;1.75;;
43337;SDS011;28933;52.492;13.434;2023-10-08T10:30:12;2.55;;;1.50;;
43337;SDS011;28933;52.492;13.434;2023-10-08T10:33:04;3.50;;;1.30;;
43337;SDS011;28933;52.492;13.434;2023-10-08T10:35:51;4.03;;;1.52;;
43337;SDS011;28933;52.492;13.434;2023-10-08T10:38:37;1.67;;;1.05;;
43337;SDS011;28933;52.492;13.434;2023-10-08T10:41:27;4.05;;;1.05;;
43337;SDS011;28933;52.492;13.434;2023-10-08T10:44:14;1.20;;;0.88;;
43337;SDS011;28933;52.492;13.434;2023-10-08T10:47:00;1.95;;;0.80;;
43337;SDS011;28933;52.492;13.434;2023-10-08T10:50:06;2.13;;;0.80;;
43337;SDS011;28933;52.492;13.434;2023-10-08T10:52:52;1.48;;;0.98;;
43337;SDS011;28933;52.492;13.434;2023-10-08T10:55:39;1.80;;;1.10;;
43337;SDS011;28933;52.492;13.434;2023-10-08T10:58:33;2.55;;;1.13;;
43337;SDS011;28933;52.492;13.434;2023-10-08T11:01:27;12.85;;;7.32;;
43337;SDS011;28933;52.492;13.434;2023-10-08T11:04:36;5.28;;;1.83;;
43337;SDS011;28933;52.492;13.434;2023-10-08T11:07:34;2.45;;;1.48;;
43337;SDS011;28933;52.492;13.434;2023-10-08T11:10:22;3.85;;;1.27;;
43337;SDS011;28933;52.492;13.434;2023-10-08T11:13:09;2.60;;;1.38;;
43337;SDS011;28933;52.492;13.434;2023-10-08T11:16:02;2.15;;;0.90;;
43337;SDS011;28933;52.492;13.434;2023-10-08T11:18:49;1.15;;;1.00;;
43337;SDS011;28933;52.492;13.434;2023-10-08T11:24:51;3.30;;;0.88;;
43337;SDS011;28933;52.492;13.434;2023-10-08T11:27:39;1.52;;;1.08;;
43337;SDS011;28933;52.492;13.434;2023-10-08T11:30:25;1.35;;;0.73;;
43337;SDS011;28933;52.492;13.434;2023-10-08T11:33:16;2.20;;;1.10;;
43337;SDS011;28933;52.492;13.434;2023-10-08T11:36:02;1.13;;;0.90;;
43337;SDS011;28933;52.492;13.434;2023-10-08T11:38:52;1.45;;;0.70;;
43337;SDS011;28933;52.492;13.434;2023-10-08T11:41:39;1.88;;;1.10;;
43337;SDS011;28933;52.492;13.434;2023-10-08T11:44:35;1.65;;;1.05;;
43337;SDS011;28933;52.492;13.434;2023-10-08T11:47:21;1.52;;;1.10;;
43337;SDS011;28933;52.492;13.434;2023-10-08T11:50:07;1.73;;;1.02;;
43337;SDS011;28933;52.492;13.434;2023-10-08T11:53:02;2.95;;;1.00;;
43337;SDS011;28933;52.492;13.434;2023-10-08T11:55:48;2.33;;;1.52;;
43337;SDS011;28933;52.492;13.434;2023-10-08T11:58:34;2.08;;;1.55;;
43337;SDS011;28933;52.492;13.434;2023-10-08T12:01:23;1.85;;;1.10;;
43337;SDS011;28933;52.492;13.434;2023-10-08T12:04:10;3.22;;;1.50;;
43337;SDS011;28933;52.492;13.434;2023-10-08T12:07:02;2.15;;;1.10;;
43337;SDS011;28933;52.492;13.434;2023-10-08T12:09:52;1.05;;;0.80;;
43337;SDS011;28933;52.492;13.434;2023-10-08T12:12:39;1.58;;;1.10;;
43337;SDS011;28933;52.492;13.434;2023-10-08T12:15:26;3.85;;;1.00;;
43337;SDS011;28933;52.492;13.434;2023-10-08T12:18:19;2.03;;;1.10;;
43337;SDS011;28933;52.492;13.434;2023-10-08T12:21:11;1.58;;;0.80;;
43337;SDS011;28933;52.492;13.434;2023-10-08T12:24:00;1.27;;;0.93;;
43337;SDS011;28933;52.492;13.434;2023-10-08T12:26:50;3.03;;;1.10;;
43337;SDS011;28933;52.492;13.434;2023-10-08T12:29:37;1.45;;;0.98;;
43337;SDS011;28933;52.492;13.434;2023-10-08T12:32:23;2.67;;;0.70;;
43337;SDS011;28933;52.492;13.434;2023-10-08T12:35:11;3.15;;;1.10;;
43337;SDS011;28933;52.492;13.434;2023-10-08T12:38:00;1.90;;;0.85;;
43337;SDS011;28933;52.492;13.434;2023-10-08T12:40:46;2.78;;;1.30;;
43337;SDS011;28933;52.492;13.434;2023-10-08T12:43:39;1.02;;;0.70;;
43337;SDS011;28933;52.492;13.434;2023-10-08T12:46:27;1.40;;;0.73;;
43337;SDS011;28933;52.492;13.434;2023-10-08T12:49:16;1.27;;;0.90;;
43337;SDS011;28933;52.492;13.434;2023-10-08T12:52:02;2.40;;;0.82;;
43337;SDS011;28933;52.492;13.434;2023-10-08T12:54:48;1.25;;;0.77;;
43337;SDS011;28933;52.492;13.434;2023-10-08T12:57:34;1.45;;;1.00;;
43337;SDS011;28933;52.492;13.434;2023-10-08T13:00:23;1.95;;;1.15;;
43337;SDS011;28933;52.492;13.434;2023-10-08T13:03:09;2.30;;;1.00;;
43337;SDS011;28933;52.492;13.434;2023-10-08T13:06:09;2.00;;;0.88;;
43337;SDS011;28933;52.492;13.434;2023-10-08T13:09:07;2.10;;;0.90;;
43337;SDS011;28933;52.492;13.434;2023-10-08T13:11:57;2.33;;;1.00;;
43337;SDS011;28933;52.492;13.434;2023-10-08T13:14:46;2.95;;;1.20;;
43337;SDS011;28933;52.492;13.434;2023-10-08T13:17:32;1.55;;;1.05;;
43337;SDS011;28933;52.492;13.434;2023-10-08T13:20:18;1.52;;;0.82;;
43337;SDS011;28933;52.492;13.434;2023-10-08T13:23:06;2.53;;;0.88;;
43337;SDS011;28933;52.492;13.434;2023-10-08T13:25:52;1.88;;;0.95;;
43337;SDS011;28933;52.492;13.434;2023-10-08T13:28:39;1.15;;;0.90;;
43337;SDS011;28933;52.492;13.434;2023-10-08T13:31:26;1.70;;;0.85;;
43337;SDS011;28933;52.492;13.434;2023-10-08T13:34:12;3.63;;;0.90;;
43337;SDS011;28933;52.492;13.434;2023-10-08T13:37:01;1.67;;;0.90;;
43337;SDS011;28933;52.492;13.434;2023-10-08T13:39:47;3.65;;;1.30;;
43337;SDS011;28933;52.492;13.434;2023-10-08T13:42:33;3.38;;;1.75;;
43337;SDS011;28933;52.492;13.434;2023-10-08T13:45:19;2.60;;;1.38;;
43337;SDS011;28933;52.492;13.434;2023-10-08T13:48:11;2.00;;;1.00;;
43337;SDS011;28933;52.492;13.434;2023-10-08T13:51:00;3.00;;;1.30;;
43337;SDS011;28933;52.492;13.434;2023-10-08T13:53:49;2.55;;;1.20;;
43337;SDS011;28933;52.492;13.434;2023-10-08T13:56:44;3.42;;;1.50;;
43337;SDS011;28933;52.492;13.434;2023-10-08T13:59:33;1.67;;;1.15;;
43337;SDS011;28933;52.492;13.434;2023-10-08T14:02:19;2.50;;;1.23;;
43337;SDS011;28933;52.492;13.434;2023-10-08T14:05:07;2.10;;;1.00;;
43337;SDS011;28933;52.492;13.434;2023-10-08T14:07:54;2.40;;;1.35;;
43337;SDS011;28933;52.492;13.434;2023-10-08T14:10:41;2.03;;;1.20;;
43337;SDS011;28933;52.492;13.434;2023-10-08T14:13:29;1.98;;;1.15;;
43337;SDS011;28933;52.492;13.434;2023-10-08T14:16:17;2.15;;;1.10;;
43337;SDS011;28933;52.492;13.434;2023-10-08T14:19:03;1.58;;;1.00;;
43337;SDS011;28933;52.492;13.434;2023-10-08T14:21:50;4.63;;;1.55;;
43337;SDS011;28933;52.492;13.434;2023-10-08T14:24:40;1.65;;;0.80;;
43337;SDS011;28933;52.492;13.434;2023-10-08T14:27:26;1.95;;;0.90;;
43337;SDS011;28933;52.492;13.434;2023-10-08T14:30:17;2.58;;;0.93;;
43337;SDS011;28933;52.492;13.434;2023-10-08T14:33:06;1.35;;;0.85;;
43337;SDS011;28933;52.492;13.434;2023-10-08T14:35:54;1.73;;;1.08;;
43337;SDS011;28933;52.492;13.434;2023-10-08T14:38:58;2.10;;;0.98;;
43337;SDS011;28933;52.492;13.434;2023-10-08T14:42:03;2.08;;;1.25;;
43337;SDS011;28933;52.492;13.434;2023-10-08T14:45:08;1.15;;;0.90;;
43337;SDS011;28933;52.492;13.434;2023-10-08T14:47:57;2.17;;;1.20;;
43337;SDS011;28933;52.492;13.434;2023-10-08T14:50:43;1.67;;;0.90;;
43337;SDS011;28933;52.492;13.434;2023-10-08T14:53:31;1.95;;;1.35;;
43337;SDS011;28933;52.492;13.434;2023-10-08T14:56:17;2.38;;;1.30;;
43337;SDS011;28933;52.492;13.434;2023-10-08T14:59:05;3.53;;;1.33;;
43337;SDS011;28933;52.492;13.434;2023-10-08T15:01:52;2.53;;;1.10;;
43337;SDS011;28933;52.492;13.434;2023-10-08T15:04:38;2.80;;;0.82;;
43337;SDS011;28933;52.492;13.434;2023-10-08T15:07:24;2.85;;;1.70;;
43337;SDS011;28933;52.492;13.434;2023-10-08T15:10:13;2.25;;;0.98;;
43337;SDS011;28933;52.492;13.434;2023-10-08T15:13:00;1.63;;;0.98;;
43337;SDS011;28933;52.492;13.434;2023-10-08T15:15:46;3.03;;;1.63;;
43337;SDS011;28933;52.492;13.434;2023-10-08T15:18:32;1.95;;;1.30;;
43337;SDS011;28933;52.492;13.434;2023-10-08T15:21:27;2.70;;;1.70;;
43337;SDS011;28933;52.492;13.434;2023-10-08T15:24:13;3.90;;;1.63;;
43337;SDS011;28933;52.492;13.434;2023-10-08T15:27:00;2.50;;;1.70;;
43337;SDS011;28933;52.492;13.434;2023-10-08T15:29:45;3.03;;;1.20;;
43337;SDS011;28933;52.492;13.434;2023-10-08T15:32:31;4.22;;;1.88;;
43337;SDS011;28933;52.492;13.434;2023-10-08T15:35:18;3.70;;;1.83;;
43337;SDS011;28933;52.492;13.434;2023-10-08T15:38:05;2.83;;;1.70;;
43337;SDS011;28933;52.492;13.434;2023-10-08T15:40:51;2.50;;;1.20;;
43337;SDS011;28933;52.492;13.434;2023-10-08T15:43:37;3.25;;;1.60;;
43337;SDS011;28933;52.492;13.434;2023-10-08T15:46:23;2.70;;;1.50;;
43337;SDS011;28933;52.492;13.434;2023-10-08T15:49:09;2.85;;;1.63;;
43337;SDS011;28933;52.492;13.434;2023-10-08T15:51:56;3.90;;;1.92;;
43337;SDS011;28933;52.492;13.434;2023-10-08T15:54:42;4.90;;;2.75;;
43337;SDS011;28933;52.492;13.434;2023-10-08T15:57:29;4.18;;;1.83;;
43337;SDS011;28933;52.492;13.434;2023-10-08T16:00:15;3.80;;;1.75;;
43337;SDS011;28933;52.492;13.434;2023-10-08T16:03:01;4.20;;;1.55;;
43337;SDS011;28933;52.492;13.434;2023-10-08T16:05:47;4.43;;;1.88;;
43337;SDS011;28933;52.492;13.434;2023-10-08T16:08:34;4.50;;;2.38;;
43337;SDS011;28933;52.492;13.434;2023-10-08T16:11:20;4.53;;;2.47;;
43337;SDS011;28933;52.492;13.434;2023-10-08T16:14:06;3.17;;;1.95;;
43337;SDS011;28933;52.492;13.434;2023-10-08T16:16:52;5.07;;;2.03;;
43337;SDS011;28933;52.492;13.434;2023-10-08T16:19:38;3.90;;;2.03;;
43337;SDS011;28933;52.492;13.434;2023-10-08T16:22:24;4.63;;;2.20;;
43337;SDS011;28933;52.492;13.434;2023-10-08T16:25:10;5.88;;;2.60;;
43337;SDS011;28933;52.492;13.434;2023-10-08T16:28:00;3.35;;;2.28;;
43337;SDS011;28933;52.492;13.434;2023-10-08T16:30:46;4.68;;;2.13;;
43337;SDS011;28933;52.492;13.434;2023-10-08T16:33:36;3.78;;;2.20;;
43337;SDS011;28933;52.492;13.434;2023-10-08T16:36:23;3.03;;;1.85;;
43337;SDS011;28933;52.492;13.434;2023-10-08T16:39:09;4.05;;;2.00;;
43337;SDS011;28933;52.492;13.434;2023-10-08T16:42:02;5.88;;;2.78;;
43337;SDS011;28933;52.492;13.434;2023-10-08T16:44:49;4.93;;;2.58;;
43337;SDS011;28933;52.492;13.434;2023-10-08T16:47:36;2.85;;;1.80;;
43337;SDS011;28933;52.492;13.434;2023-10-08T16:50:22;4.03;;;1.88;;
43337;SDS011;28933;52.492;13.434;2023-10-08T16:53:08;2.88;;;1.70;;
43337;SDS011;28933;52.492;13.434;2023-10-08T16:55:55;5.95;;;1.80;;
43337;SDS011;28933;52.492;13.434;2023-10-08T16:58:41;3.70;;;1.63;;